createdAt,value
2018-04-28T00:00:29.352Z,13.20
2018-04-28T00:02:57.781Z,13.20
2018-04-28T00:05:25.357Z,13.20
2018-04-28T00:07:53.012Z,13.20
2018-04-28T00:10:20.617Z,13.20
2018-04-28T00:12:51.107Z,13.20
2018-04-28T00:15:18.728Z,13.20
2018-04-28T00:17:47.138Z,13.10
2018-04-28T00:20:14.736Z,13.10
2018-04-28T00:22:43.027Z,13.10
2018-04-28T00:25:13.040Z,13.00
2018-04-28T00:27:55.920Z,12.90
2018-04-28T00:30:32.308Z,12.90
2018-04-28T00:33:18.570Z,12.90
2018-04-28T00:35:46.135Z,12.90
2018-04-28T00:38:13.749Z,12.80
2018-04-28T00:40:45.722Z,12.80
2018-04-28T00:46:26.497Z,12.80
2018-04-28T00:49:09.747Z,12.80
2018-04-28T00:51:37.272Z,12.80
2018-04-28T00:54:11.322Z,12.80
2018-04-28T00:56:38.850Z,12.90
2018-04-28T00:59:21.244Z,13.00
2018-04-28T01:04:45.900Z,13.10
2018-04-28T01:07:23.542Z,13.10
2018-04-28T01:09:54.942Z,13.20
2018-04-28T01:12:40.545Z,13.30
2018-04-28T01:15:10.857Z,13.30
2018-04-28T01:17:38.431Z,13.40
2018-04-28T01:20:11.418Z,13.40
2018-04-28T01:22:59.526Z,13.40
2018-04-28T01:25:40.509Z,13.50
2018-04-28T01:28:10.993Z,13.50
2018-04-28T01:30:38.555Z,13.50
2018-04-28T01:33:27.711Z,13.50
2018-04-28T01:36:10.221Z,13.50
2018-04-28T01:38:37.867Z,13.50
2018-04-28T01:41:22.373Z,13.50
2018-04-28T01:46:51.087Z,13.50
2018-04-28T01:49:26.165Z,13.50
2018-04-28T01:51:54.610Z,13.50
2018-04-28T01:54:32.703Z,13.50
2018-04-28T01:57:06.881Z,13.50
2018-04-28T01:59:44.462Z,13.50
2018-04-28T02:02:12.007Z,13.50
2018-04-28T02:04:47.624Z,13.50
2018-04-28T02:07:15.936Z,13.50
2018-04-28T02:09:44.429Z,13.50
2018-04-28T02:12:21.620Z,13.60
2018-04-28T02:17:50.679Z,13.60
2018-04-28T02:20:22.821Z,13.60
2018-04-28T02:23:03.960Z,13.60
2018-04-28T02:25:37.355Z,13.60
2018-04-28T02:28:05.618Z,13.70
2018-04-28T02:30:37.449Z,13.70
2018-04-28T02:33:05.728Z,13.70
2018-04-28T02:35:35.758Z,13.70
2018-04-28T02:38:09.250Z,13.80
2018-04-28T02:40:47.492Z,13.70
2018-04-28T02:43:15.731Z,13.80
2018-04-28T02:45:49.908Z,13.80
2018-04-28T02:48:25.022Z,13.80
2018-04-28T02:50:56.999Z,13.80
2018-04-28T02:53:37.230Z,13.80
2018-04-28T02:56:15.424Z,13.70
2018-04-28T02:58:54.372Z,13.70
2018-04-28T03:01:25.426Z,13.60
2018-04-28T03:03:55.525Z,13.60
2018-04-28T03:06:40.888Z,13.70
2018-04-28T03:09:11.139Z,13.70
2018-04-28T03:11:44.501Z,13.60
2018-04-28T03:14:14.456Z,13.70
2018-04-28T03:16:42.674Z,13.60
2018-04-28T03:19:12.606Z,13.70
2018-04-28T03:21:48.420Z,13.60
2018-04-28T03:27:26.566Z,13.60
2018-04-28T03:30:04.560Z,13.60
2018-04-28T03:32:40.622Z,13.60
2018-04-28T03:35:17.632Z,13.60
2018-04-28T03:40:49.116Z,13.60
2018-04-28T03:46:24.530Z,13.60
2018-04-28T03:48:55.980Z,13.60
2018-04-28T03:51:26.238Z,13.60
2018-04-28T03:53:57.717Z,13.60
2018-04-28T03:56:28.171Z,13.60
2018-04-28T03:59:07.615Z,13.50
2018-04-28T04:01:49.907Z,13.60
2018-04-28T04:04:19.872Z,13.60
2018-04-28T04:06:56.268Z,13.50
2018-04-28T04:09:29.481Z,13.50
2018-04-28T04:15:24.091Z,13.50
2018-04-28T04:17:55.396Z,13.50
2018-04-28T04:20:39.542Z,13.60
2018-04-28T04:23:19.031Z,13.50
2018-04-28T04:29:01.435Z,13.50
2018-04-28T04:31:37.735Z,13.60
2018-04-28T04:34:11.376Z,13.60
2018-04-28T04:36:50.922Z,13.60
2018-04-28T04:39:36.914Z,13.70
2018-04-28T04:42:26.029Z,13.70
2018-04-28T04:45:01.450Z,13.70
2018-04-28T04:47:39.818Z,13.70
2018-04-28T04:50:23.177Z,13.80
2018-04-28T04:53:04.079Z,13.90
2018-04-28T04:55:36.236Z,13.90
2018-04-28T04:58:27.208Z,13.90
2018-04-28T05:01:01.072Z,14.00
2018-04-28T05:03:52.283Z,14.10
2018-04-28T05:06:35.579Z,14.20
2018-04-28T05:09:14.957Z,14.30
2018-04-28T05:14:57.053Z,14.50
2018-04-28T05:17:48.258Z,14.70
2018-04-28T05:20:36.649Z,14.80
2018-04-28T05:23:23.922Z,15.10
2018-04-28T05:26:04.002Z,15.70
2018-04-28T05:28:57.104Z,15.60
2018-04-28T05:31:31.118Z,15.90
2018-04-28T05:34:04.510Z,16.30
2018-04-28T05:36:32.040Z,16.80
2018-04-28T05:39:11.216Z,17.20
2018-04-28T05:42:06.367Z,17.60
2018-04-28T05:44:55.663Z,17.60
2018-04-28T05:47:39.710Z,17.50
2018-04-28T05:50:14.834Z,17.30
2018-04-28T05:52:54.338Z,17.00
2018-04-28T05:55:31.701Z,16.90
2018-04-28T05:58:22.641Z,16.90
2018-04-28T06:04:16.439Z,17.00
2018-04-28T06:06:51.852Z,16.80
2018-04-28T06:09:40.953Z,16.60
2018-04-28T06:12:08.580Z,16.60
2018-04-28T06:14:47.838Z,16.80
2018-04-28T06:17:39.811Z,16.80
2018-04-28T06:20:22.073Z,16.90
2018-04-28T06:22:49.624Z,16.90
2018-04-28T06:25:17.161Z,16.80
2018-04-28T06:27:44.688Z,16.70
2018-04-28T06:30:12.224Z,16.50
2018-04-28T06:32:39.751Z,16.40
2018-04-28T06:35:08.051Z,16.90
2018-04-28T06:37:35.675Z,16.90
2018-04-28T06:40:03.277Z,17.10
2018-04-28T06:42:30.869Z,17.00
2018-04-28T06:44:58.503Z,17.00
2018-04-28T06:47:26.172Z,17.10
2018-04-28T06:49:58.171Z,17.30
2018-04-28T06:52:25.721Z,17.40
2018-04-28T06:54:53.357Z,17.50
2018-04-28T06:57:20.987Z,17.60
2018-04-28T06:59:48.573Z,17.80
2018-04-28T07:02:16.147Z,18.40
2018-04-28T07:04:43.747Z,18.70
2018-04-28T07:07:12.121Z,18.30
2018-04-28T07:09:39.761Z,18.20
2018-04-28T07:12:07.351Z,18.00
2018-04-28T07:14:35.744Z,18.20
2018-04-28T07:17:03.330Z,18.20
2018-04-28T07:19:30.940Z,18.10
2018-04-28T07:21:58.571Z,18.10
2018-04-28T07:24:26.129Z,18.40
2018-04-28T07:26:53.751Z,18.40
2018-04-28T07:29:21.391Z,18.40
2018-04-28T07:31:48.959Z,18.50
2018-04-28T07:34:16.539Z,18.70
2018-04-28T07:36:44.157Z,19.10
2018-04-28T07:39:12.495Z,19.60
2018-04-28T07:41:40.078Z,19.60
2018-04-28T07:44:07.688Z,19.90
2018-04-28T07:46:35.305Z,20.00
2018-04-28T07:49:02.923Z,20.00
2018-04-28T07:51:30.524Z,19.80
2018-04-28T07:53:58.131Z,20.00
2018-04-28T07:56:25.705Z,20.00
2018-04-28T07:58:53.354Z,19.70
2018-04-28T08:01:20.938Z,19.50
2018-04-28T08:03:48.603Z,19.20
2018-04-28T08:06:16.174Z,19.10
2018-04-28T08:08:44.670Z,19.20
2018-04-28T08:11:13.056Z,19.40
2018-04-28T08:13:40.629Z,19.40
2018-04-28T08:16:08.192Z,19.70
2018-04-28T08:18:35.786Z,19.90
2018-04-28T08:21:03.366Z,20.00
2018-04-28T08:23:31.002Z,20.10
2018-04-28T08:25:58.601Z,20.30
2018-04-28T08:28:26.688Z,20.70
2018-04-28T08:30:55.062Z,21.00
2018-04-28T08:33:22.812Z,21.00
2018-04-28T08:35:50.396Z,20.80
2018-04-28T08:38:17.972Z,20.50
2018-04-28T08:40:46.368Z,20.00
2018-04-28T08:43:13.961Z,20.00
2018-04-28T08:45:41.573Z,19.90
2018-04-28T08:48:09.926Z,19.70
2018-04-28T08:50:37.496Z,19.70
2018-04-28T08:53:06.632Z,19.40
2018-04-28T08:55:34.276Z,19.40
2018-04-28T08:58:02.622Z,19.30
2018-04-28T09:00:31.076Z,19.30
2018-04-28T09:02:58.693Z,19.50
2018-04-28T09:05:27.056Z,19.90
2018-04-28T09:07:55.403Z,19.90
2018-04-28T09:10:23.004Z,19.90
2018-04-28T09:12:51.537Z,19.60
2018-04-28T09:15:19.141Z,19.60
2018-04-28T09:17:46.741Z,19.60
2018-04-28T09:20:14.354Z,19.40
2018-04-28T09:22:41.970Z,19.40
2018-04-28T09:25:09.534Z,19.60
2018-04-28T09:27:37.164Z,19.90
2018-04-28T09:30:05.526Z,20.80
2018-04-28T09:32:33.919Z,21.10
2018-04-28T09:35:01.524Z,21.00
2018-04-28T09:37:29.126Z,21.00
2018-04-28T09:39:57.562Z,21.50
2018-04-28T09:42:25.107Z,21.50
2018-04-28T09:44:52.724Z,21.70
2018-04-28T09:47:20.348Z,22.10
2018-04-28T09:49:47.966Z,22.00
2018-04-28T09:52:15.560Z,21.90
2018-04-28T09:54:44.382Z,22.20
2018-04-28T09:57:11.981Z,22.20
2018-04-28T09:59:39.606Z,22.40
2018-04-28T10:02:12.775Z,22.40
2018-04-28T10:04:40.374Z,22.40
2018-04-28T10:07:08.704Z,21.80
2018-04-28T10:09:36.297Z,21.80
2018-04-28T10:12:04.691Z,21.60
2018-04-28T10:14:33.059Z,21.80
2018-04-28T10:17:01.467Z,22.10
2018-04-28T10:19:29.105Z,22.10
2018-04-28T10:21:57.478Z,22.40
2018-04-28T10:24:25.079Z,22.40
2018-04-28T10:26:52.697Z,22.50
2018-04-28T10:29:20.289Z,22.50
2018-04-28T10:31:47.897Z,22.40
2018-04-28T10:34:15.470Z,22.50
2018-04-28T10:36:43.114Z,22.70
2018-04-28T10:39:10.733Z,22.90
2018-04-28T10:41:38.339Z,23.00
2018-04-28T10:44:05.939Z,22.70
2018-04-28T10:46:34.257Z,22.30
2018-04-28T10:49:01.863Z,22.30
2018-04-28T10:51:29.457Z,22.20
2018-04-28T10:53:57.133Z,22.20
2018-04-28T10:56:24.664Z,22.40
2018-04-28T10:58:52.998Z,22.50
2018-04-28T11:01:20.575Z,22.50
2018-04-28T11:03:48.209Z,22.50
2018-04-28T11:06:15.762Z,22.50
2018-04-28T11:08:43.377Z,22.50
2018-04-28T11:11:11.830Z,22.50
2018-04-28T11:13:39.428Z,22.50
2018-04-28T11:16:07.835Z,22.50
2018-04-28T11:18:35.450Z,22.50
2018-04-28T11:21:03.812Z,22.50
2018-04-28T11:23:31.407Z,22.50
2018-04-28T11:25:59.836Z,22.30
2018-04-28T11:28:27.414Z,22.30
2018-04-28T11:30:55.014Z,22.30
2018-04-28T11:33:22.709Z,22.50
2018-04-28T11:35:50.334Z,22.50
2018-04-28T11:38:18.796Z,22.40
2018-04-28T11:40:46.348Z,22.40
2018-04-28T11:43:13.950Z,22.40
2018-04-28T11:45:41.535Z,22.60
2018-04-28T11:48:09.238Z,22.70
2018-04-28T11:50:36.794Z,23.00
2018-04-28T11:53:05.169Z,23.70
2018-04-28T11:55:32.741Z,23.60
2018-04-28T11:58:00.311Z,24.00
2018-04-28T12:00:27.921Z,24.30
2018-04-28T12:02:55.530Z,24.50
2018-04-28T12:05:25.329Z,27.50
2018-04-28T12:07:53.727Z,28.40
2018-04-28T12:10:21.369Z,28.30
2018-04-28T12:12:48.990Z,28.40
2018-04-28T12:15:16.595Z,29.00
2018-04-28T12:17:44.958Z,31.00
2018-04-28T12:20:12.565Z,30.90
2018-04-28T12:22:40.119Z,31.10
2018-04-28T12:25:07.789Z,31.30
2018-04-28T12:27:42.251Z,30.90
2018-04-28T12:30:09.993Z,31.20
2018-04-28T12:32:37.553Z,31.70
2018-04-28T12:35:05.185Z,31.70
2018-04-28T12:37:32.763Z,32.20
2018-04-28T12:40:00.362Z,32.40
2018-04-28T12:42:27.966Z,31.60
2018-04-28T12:44:55.543Z,30.50
2018-04-28T12:47:23.921Z,29.70
2018-04-28T12:49:51.511Z,29.70
2018-04-28T12:52:19.849Z,30.00
2018-04-28T12:54:47.508Z,30.20
2018-04-28T12:57:15.136Z,30.30
2018-04-28T12:59:43.511Z,31.00
2018-04-28T13:02:11.871Z,31.50
2018-04-28T13:04:39.919Z,31.40
2018-04-28T13:07:07.636Z,31.50
2018-04-28T13:09:36.189Z,32.10
2018-04-28T13:12:04.927Z,32.00
2018-04-28T13:14:32.503Z,31.90
2018-04-28T13:17:00.076Z,31.40
2018-04-28T13:19:28.922Z,31.00
2018-04-28T13:21:56.645Z,31.00
2018-04-28T13:24:24.318Z,30.40
2018-04-28T13:26:51.973Z,29.30
2018-04-28T13:29:20.352Z,27.90
2018-04-28T13:31:48.020Z,27.90
2018-04-28T13:34:15.660Z,27.90
2018-04-28T13:36:43.268Z,27.80
2018-04-28T13:39:10.886Z,27.30
2018-04-28T13:41:38.476Z,26.10
2018-04-28T13:44:06.162Z,26.30
2018-04-28T13:46:33.775Z,26.10
2018-04-28T13:49:01.541Z,26.00
2018-04-28T13:51:29.149Z,26.30
2018-04-28T13:53:56.732Z,26.70
2018-04-28T13:56:24.346Z,27.40
2018-04-28T13:58:52.517Z,28.30
2018-04-28T14:01:20.154Z,28.30
2018-04-28T14:03:48.522Z,28.00
2018-04-28T14:06:16.945Z,27.90
2018-04-28T14:08:44.522Z,28.00
2018-04-28T14:11:12.186Z,28.50
2018-04-28T14:13:39.778Z,28.60
2018-04-28T14:16:08.206Z,28.30
2018-04-28T14:18:35.934Z,28.30
2018-04-28T14:21:04.301Z,27.20
2018-04-28T14:23:32.668Z,27.30
2018-04-28T14:26:00.264Z,27.30
2018-04-28T14:28:27.867Z,27.10
2018-04-28T14:30:55.431Z,26.80
2018-04-28T14:33:23.185Z,26.30
2018-04-28T14:35:50.834Z,25.60
2018-04-28T14:38:18.421Z,25.00
2018-04-28T14:40:46.194Z,24.60
2018-04-28T14:43:13.777Z,25.40
2018-04-28T14:45:41.386Z,25.70
2018-04-28T14:48:09.003Z,25.40
2018-04-28T14:50:37.536Z,24.40
2018-04-28T14:53:05.176Z,24.40
2018-04-28T14:55:32.764Z,23.70
2018-04-28T14:58:00.346Z,23.90
2018-04-28T15:00:28.019Z,24.40
2018-04-28T15:02:56.384Z,25.30
2018-04-28T15:05:24.127Z,25.30
2018-04-28T15:07:51.682Z,25.50
2018-04-28T15:10:22.280Z,26.10
2018-04-28T15:12:49.912Z,26.10
2018-04-28T15:15:17.550Z,26.10
2018-04-28T15:17:45.152Z,26.00
2018-04-28T15:20:12.755Z,25.90
2018-04-28T15:22:40.355Z,26.20
2018-04-28T15:25:08.014Z,26.50
2018-04-28T15:27:35.667Z,26.40
2018-04-28T15:30:03.299Z,25.90
2018-04-28T15:32:30.985Z,25.60
2018-04-28T15:34:58.668Z,25.40
2018-04-28T15:37:26.265Z,25.20
2018-04-28T15:39:54.665Z,24.50
2018-04-28T15:42:23.093Z,24.00
2018-04-28T15:44:50.946Z,24.00
2018-04-28T15:47:18.554Z,24.30
2018-04-28T15:49:46.175Z,24.40
2018-04-28T15:52:14.542Z,24.30
2018-04-28T15:54:42.155Z,24.30
2018-04-28T15:57:09.740Z,24.30
2018-04-28T15:59:37.324Z,24.00
2018-04-28T16:02:04.940Z,23.80
2018-04-28T16:04:32.531Z,23.70
2018-04-28T16:07:00.149Z,23.70
2018-04-28T16:09:27.719Z,23.60
2018-04-28T16:11:55.339Z,23.30
2018-04-28T16:14:23.769Z,22.90
2018-04-28T16:16:51.358Z,22.90
2018-04-28T16:19:19.015Z,22.50
2018-04-28T16:21:46.705Z,22.20
2018-04-28T16:24:14.258Z,21.80
2018-04-28T16:26:42.059Z,21.70
2018-04-28T16:29:09.741Z,21.60
2018-04-28T16:31:37.318Z,21.50
2018-04-28T16:34:04.913Z,21.40
2018-04-28T16:36:34.181Z,21.40
2018-04-28T16:39:01.859Z,21.40
2018-04-28T16:41:30.170Z,21.20
2018-04-28T16:43:57.754Z,21.20
2018-04-28T16:46:25.369Z,21.00
2018-04-28T16:48:53.004Z,20.90
2018-04-28T16:51:20.615Z,20.80
2018-04-28T16:53:48.259Z,20.70
2018-04-28T16:56:16.021Z,20.80
2018-04-28T16:58:43.639Z,20.80
2018-04-28T17:01:11.237Z,20.80
2018-04-28T17:03:38.851Z,20.80
2018-04-28T17:06:07.247Z,20.70
2018-04-28T17:08:39.363Z,20.60
2018-04-28T17:11:07.216Z,20.60
2018-04-28T17:13:36.667Z,20.40
2018-04-28T17:16:04.303Z,20.40
2018-04-28T17:18:31.883Z,20.40
2018-04-28T17:20:59.693Z,20.20
2018-04-28T17:23:27.357Z,20.20
2018-04-28T17:25:57.848Z,20.10
2018-04-28T17:28:26.471Z,20.00
2018-04-28T17:30:54.151Z,19.90
2018-04-28T17:33:21.780Z,19.90
2018-04-28T17:35:50.898Z,19.80
2018-04-28T17:38:19.921Z,19.80
2018-04-28T17:40:47.857Z,19.70
2018-04-28T17:43:15.445Z,19.70
2018-04-28T17:45:43.190Z,19.60
2018-04-28T17:48:10.822Z,19.50
2018-04-28T17:50:38.421Z,19.50
2018-04-28T17:53:06.021Z,19.40
2018-04-28T17:55:33.559Z,19.30
2018-04-28T17:58:01.177Z,19.20
2018-04-28T18:00:28.831Z,19.10
2018-04-28T18:02:56.491Z,19.10
2018-04-28T18:05:24.227Z,19.00
2018-04-28T18:07:51.837Z,18.90
2018-04-28T18:10:19.461Z,18.90
2018-04-28T18:12:47.067Z,18.80
2018-04-28T18:15:14.905Z,18.80
2018-04-28T18:17:42.704Z,18.80
2018-04-28T18:20:11.836Z,18.60
2018-04-28T18:22:39.425Z,18.60
2018-04-28T18:25:07.033Z,18.60
2018-04-28T18:27:34.605Z,18.50
2018-04-28T18:30:02.950Z,18.40
2018-04-28T18:32:30.577Z,18.40
2018-04-28T18:34:58.509Z,18.40
2018-04-28T18:37:26.113Z,18.30
2018-04-28T18:39:53.721Z,18.30
2018-04-28T18:42:22.118Z,18.20
2018-04-28T18:44:50.485Z,18.10
2018-04-28T18:47:18.204Z,18.10
2018-04-28T18:49:45.814Z,18.10
2018-04-28T18:52:13.389Z,18.10
2018-04-28T18:54:40.997Z,18.00
2018-04-28T18:57:24.934Z,17.90
2018-04-28T18:59:52.798Z,17.90
2018-04-28T19:02:20.411Z,17.80
2018-04-28T19:04:48.066Z,17.70
2018-04-28T19:07:15.706Z,17.60
2018-04-28T19:09:43.356Z,17.60
2018-04-28T19:12:10.970Z,17.50
2018-04-28T19:14:38.588Z,17.40
2018-04-28T19:17:06.229Z,17.30
2018-04-28T19:19:34.660Z,17.20
2018-04-28T19:22:08.388Z,17.20
2018-04-28T19:24:36.029Z,17.20
2018-04-28T19:27:03.653Z,17.10
2018-04-28T19:29:31.249Z,17.10
2018-04-28T19:31:58.860Z,17.00
2018-04-28T19:34:26.557Z,17.00
2018-04-28T19:36:54.138Z,17.00
2018-04-28T19:39:21.990Z,17.00
2018-04-28T19:41:49.816Z,16.90
2018-04-28T19:44:17.422Z,16.90
2018-04-28T19:46:45.059Z,16.90
2018-04-28T19:49:12.892Z,16.80
2018-04-28T19:51:42.333Z,16.70
2018-04-28T19:54:10.254Z,16.70
2018-04-28T19:56:38.674Z,16.60
2018-04-28T19:59:06.308Z,16.60
2018-04-28T20:01:34.004Z,16.60
2018-04-28T20:04:01.579Z,16.60
2018-04-28T20:06:29.187Z,16.50
2018-04-28T20:08:56.791Z,16.50
2018-04-28T20:11:24.383Z,16.50
2018-04-28T20:13:52.020Z,16.40
2018-04-28T20:16:19.616Z,16.40
2018-04-28T20:18:47.225Z,16.30
2018-04-28T20:21:14.883Z,16.30
2018-04-28T20:26:43.618Z,16.20
2018-04-28T20:29:11.914Z,16.20
2018-04-28T20:31:39.463Z,16.10
2018-04-28T20:34:08.380Z,16.10
2018-04-28T20:36:36.155Z,16.10
2018-04-28T20:39:03.926Z,16.10
2018-04-28T20:41:42.788Z,16.10
2018-04-28T20:44:11.945Z,16.00
2018-04-28T20:46:39.553Z,16.00
2018-04-28T20:49:07.149Z,16.00
2018-04-28T20:51:34.698Z,15.90
2018-04-28T20:54:02.323Z,15.90
2018-04-28T20:56:29.964Z,15.90
2018-04-28T20:58:57.708Z,15.90
2018-04-28T21:01:25.391Z,15.80
2018-04-28T21:03:53.018Z,15.80
2018-04-28T21:06:20.748Z,15.80
2018-04-28T21:09:01.861Z,15.70
2018-04-28T21:11:29.433Z,15.70
2018-04-28T21:13:57.054Z,15.60
2018-04-28T21:16:24.698Z,15.50
2018-04-28T21:18:52.356Z,15.40
2018-04-28T21:21:19.946Z,15.30
2018-04-28T21:23:47.528Z,15.30
2018-04-28T21:26:15.188Z,15.30
2018-04-28T21:28:42.827Z,15.30
2018-04-28T21:31:10.509Z,15.20
2018-04-28T21:33:38.110Z,15.20
2018-04-28T21:36:06.520Z,15.20
2018-04-28T21:38:34.102Z,15.20
2018-04-28T21:41:01.736Z,15.10
2018-04-28T21:43:29.300Z,15.10
2018-04-28T21:46:00.618Z,15.10
2018-04-28T21:48:28.992Z,15.10
2018-04-28T21:50:56.600Z,15.10
2018-04-28T21:53:24.984Z,15.00
2018-04-28T21:55:52.606Z,15.00
2018-04-28T21:58:21.023Z,15.00
2018-04-28T22:00:49.412Z,14.90
2018-04-28T22:03:17.045Z,14.90
2018-04-28T22:05:45.412Z,14.80
2018-04-28T22:08:13.692Z,14.80
2018-04-28T22:10:41.247Z,14.70
2018-04-28T22:13:08.874Z,14.60
2018-04-28T22:15:36.535Z,14.50
2018-04-28T22:18:04.081Z,14.50
2018-04-28T22:20:31.707Z,14.40
2018-04-28T22:23:00.089Z,14.40
2018-04-28T22:25:28.454Z,14.30
2018-04-28T22:27:56.064Z,14.30
2018-04-28T22:30:23.655Z,14.30
2018-04-28T22:32:51.246Z,14.30
2018-04-28T22:35:18.838Z,14.20
2018-04-28T22:37:46.448Z,14.20
2018-04-28T22:40:14.019Z,14.20
2018-04-28T22:42:42.394Z,14.10
2018-04-28T22:45:10.009Z,14.10
2018-04-28T22:47:37.633Z,14.20
2018-04-28T22:50:06.059Z,14.10
2018-04-28T22:52:33.691Z,14.00
2018-04-28T22:55:01.487Z,14.10
2018-04-28T22:57:29.087Z,14.10
2018-04-28T22:59:56.717Z,14.20
2018-04-28T23:02:27.344Z,14.20
2018-04-28T23:04:55.129Z,14.20
2018-04-28T23:07:23.504Z,14.20
2018-04-28T23:09:51.903Z,14.20
2018-04-28T23:12:19.490Z,14.10
2018-04-28T23:14:47.104Z,14.10
2018-04-28T23:17:15.528Z,14.10
2018-04-28T23:19:43.299Z,14.10
2018-04-28T23:22:18.761Z,14.10
2018-04-28T23:24:46.491Z,14.00
2018-04-28T23:27:14.108Z,14.00
2018-04-28T23:29:41.761Z,14.00
2018-04-28T23:32:10.101Z,13.90
2018-04-28T23:34:37.704Z,13.90
2018-04-28T23:37:05.329Z,13.90
2018-04-28T23:39:32.922Z,13.90
2018-04-28T23:42:00.554Z,13.90
2018-04-28T23:44:28.198Z,13.90
2018-04-28T23:46:55.756Z,14.00
2018-04-28T23:49:23.379Z,13.90
2018-04-28T23:51:51.007Z,14.00
2018-04-28T23:54:18.649Z,14.00
2018-04-28T23:56:46.279Z,13.90
2018-04-28T23:59:13.923Z,14.00
